sensor_id;sensor_type;location;lat;lon;timestamp;P1;durP1;ratioP1;P2;durP2;ratioP2
7529;SDS011;3806;52.270;10.544;2024-03-02T00:02:23;12.55;;;7.47;;
7529;SDS011;3806;52.270;10.544;2024-03-02T00:04:50;17.17;;;8.15;;
7529;SDS011;3806;52.270;10.544;2024-03-02T00:07:15;16.77;;;7.90;;
7529;SDS011;3806;52.270;10.544;2024-03-02T00:09:41;15.90;;;9.00;;
7529;SDS011;3806;52.270;10.544;2024-03-02T00:12:07;19.17;;;8.95;;
7529;SDS011;3806;52.270;10.544;2024-03-02T00:14:33;18.92;;;9.15;;
7529;SDS011;3806;52.270;10.544;2024-03-02T00:16:59;15.82;;;9.40;;
7529;SDS011;3806;52.270;10.544;2024-03-02T00:19:24;20.48;;;9.77;;
7529;SDS011;3806;52.270;10.544;2024-03-02T00:21:50;13.57;;;7.70;;
7529;SDS011;3806;52.270;10.544;2024-03-02T00:24:32;18.23;;;9.15;;
7529;SDS011;3806;52.270;10.544;2024-03-02T00:26:59;18.15;;;8.82;;
7529;SDS011;3806;52.270;10.544;2024-03-02T00:29:26;16.90;;;8.90;;
7529;SDS011;3806;52.270;10.544;2024-03-02T00:31:54;14.43;;;8.60;;
7529;SDS011;3806;52.270;10.544;2024-03-02T00:34:20;17.67;;;9.10;;
7529;SDS011;3806;52.270;10.544;2024-03-02T00:36:46;20.65;;;9.02;;
7529;SDS011;3806;52.270;10.544;2024-03-02T00:39:12;19.65;;;9.48;;
7529;SDS011;3806;52.270;10.544;2024-03-02T00:41:40;17.20;;;8.63;;
7529;SDS011;3806;52.270;10.544;2024-03-02T00:44:07;18.52;;;8.93;;
7529;SDS011;3806;52.270;10.544;2024-03-02T00:46:36;17.05;;;8.98;;
7529;SDS011;3806;52.270;10.544;2024-03-02T00:51:49;18.98;;;9.23;;
7529;SDS011;3806;52.270;10.544;2024-03-02T00:54:20;20.80;;;9.75;;
7529;SDS011;3806;52.270;10.544;2024-03-02T00:56:48;17.17;;;9.10;;
7529;SDS011;3806;52.270;10.544;2024-03-02T00:59:14;16.38;;;9.27;;
7529;SDS011;3806;52.270;10.544;2024-03-02T01:01:40;18.88;;;8.38;;
7529;SDS011;3806;52.270;10.544;2024-03-02T01:04:05;18.33;;;8.70;;
7529;SDS011;3806;52.270;10.544;2024-03-02T01:06:31;18.00;;;9.60;;
7529;SDS011;3806;52.270;10.544;2024-03-02T01:08:56;18.52;;;9.77;;
7529;SDS011;3806;52.270;10.544;2024-03-02T01:11:22;18.00;;;9.70;;
7529;SDS011;3806;52.270;10.544;2024-03-02T01:13:47;16.13;;;10.18;;
7529;SDS011;3806;52.270;10.544;2024-03-02T01:16:13;16.58;;;9.20;;
7529;SDS011;3806;52.270;10.544;2024-03-02T01:18:40;18.05;;;9.38;;
7529;SDS011;3806;52.270;10.544;2024-03-02T01:21:06;17.33;;;9.15;;
7529;SDS011;3806;52.270;10.544;2024-03-02T01:23:31;17.13;;;9.10;;
7529;SDS011;3806;52.270;10.544;2024-03-02T01:25:57;17.92;;;8.95;;
7529;SDS011;3806;52.270;10.544;2024-03-02T01:28:22;19.05;;;9.90;;
7529;SDS011;3806;52.270;10.544;2024-03-02T01:30:48;19.45;;;9.98;;
7529;SDS011;3806;52.270;10.544;2024-03-02T01:33:14;16.30;;;9.07;;
7529;SDS011;3806;52.270;10.544;2024-03-02T01:35:40;19.42;;;9.90;;
7529;SDS011;3806;52.270;10.544;2024-03-02T01:38:06;16.27;;;8.63;;
7529;SDS011;3806;52.270;10.544;2024-03-02T01:40:32;18.35;;;9.43;;
7529;SDS011;3806;52.270;10.544;2024-03-02T01:43:01;16.80;;;9.32;;
7529;SDS011;3806;52.270;10.544;2024-03-02T01:45:27;19.35;;;9.60;;
7529;SDS011;3806;52.270;10.544;2024-03-02T01:47:53;15.70;;;8.95;;
7529;SDS011;3806;52.270;10.544;2024-03-02T01:50:25;18.23;;;9.00;;
7529;SDS011;3806;52.270;10.544;2024-03-02T01:52:55;21.80;;;10.00;;
7529;SDS011;3806;52.270;10.544;2024-03-02T01:55:21;18.10;;;9.80;;
7529;SDS011;3806;52.270;10.544;2024-03-02T01:57:47;18.90;;;10.05;;
7529;SDS011;3806;52.270;10.544;2024-03-02T02:00:17;19.42;;;10.45;;
7529;SDS011;3806;52.270;10.544;2024-03-02T02:02:43;18.25;;;9.52;;
7529;SDS011;3806;52.270;10.544;2024-03-02T02:05:09;19.33;;;9.95;;
7529;SDS011;3806;52.270;10.544;2024-03-02T02:07:35;20.35;;;10.15;;
7529;SDS011;3806;52.270;10.544;2024-03-02T02:10:01;20.23;;;9.82;;
7529;SDS011;3806;52.270;10.544;2024-03-02T02:12:27;19.27;;;9.77;;
7529;SDS011;3806;52.270;10.544;2024-03-02T02:14:52;14.95;;;8.98;;
7529;SDS011;3806;52.270;10.544;2024-03-02T02:17:18;17.23;;;9.15;;
7529;SDS011;3806;52.270;10.544;2024-03-02T02:19:43;21.20;;;10.35;;
7529;SDS011;3806;52.270;10.544;2024-03-02T02:22:09;16.75;;;9.82;;
7529;SDS011;3806;52.270;10.544;2024-03-02T02:24:35;22.98;;;9.75;;
7529;SDS011;3806;52.270;10.544;2024-03-02T02:27:04;19.25;;;10.00;;
7529;SDS011;3806;52.270;10.544;2024-03-02T02:29:29;22.42;;;10.65;;
7529;SDS011;3806;52.270;10.544;2024-03-02T02:31:55;18.27;;;10.25;;
7529;SDS011;3806;52.270;10.544;2024-03-02T02:34:20;18.35;;;9.63;;
7529;SDS011;3806;52.270;10.544;2024-03-02T02:36:46;18.50;;;9.18;;
7529;SDS011;3806;52.270;10.544;2024-03-02T02:39:13;20.42;;;10.10;;
7529;SDS011;3806;52.270;10.544;2024-03-02T02:41:40;18.33;;;9.80;;
7529;SDS011;3806;52.270;10.544;2024-03-02T02:44:06;18.92;;;9.75;;
7529;SDS011;3806;52.270;10.544;2024-03-02T02:46:31;23.33;;;10.10;;
7529;SDS011;3806;52.270;10.544;2024-03-02T02:48:57;19.63;;;10.82;;
7529;SDS011;3806;52.270;10.544;2024-03-02T02:51:22;16.70;;;9.60;;
7529;SDS011;3806;52.270;10.544;2024-03-02T02:53:50;19.25;;;9.95;;
7529;SDS011;3806;52.270;10.544;2024-03-02T02:56:16;16.17;;;9.35;;
7529;SDS011;3806;52.270;10.544;2024-03-02T02:58:41;19.23;;;10.45;;
7529;SDS011;3806;52.270;10.544;2024-03-02T03:01:07;17.33;;;10.25;;
7529;SDS011;3806;52.270;10.544;2024-03-02T03:03:33;18.58;;;10.32;;
7529;SDS011;3806;52.270;10.544;2024-03-02T03:05:58;22.48;;;10.80;;
7529;SDS011;3806;52.270;10.544;2024-03-02T03:08:24;19.80;;;9.68;;
7529;SDS011;3806;52.270;10.544;2024-03-02T03:10:49;17.75;;;9.38;;
7529;SDS011;3806;52.270;10.544;2024-03-02T03:13:15;18.75;;;10.93;;
7529;SDS011;3806;52.270;10.544;2024-03-02T03:15:41;22.30;;;9.85;;
7529;SDS011;3806;52.270;10.544;2024-03-02T03:18:06;19.90;;;9.85;;
7529;SDS011;3806;52.270;10.544;2024-03-02T03:20:35;22.33;;;10.65;;
7529;SDS011;3806;52.270;10.544;2024-03-02T03:23:01;21.23;;;10.35;;
7529;SDS011;3806;52.270;10.544;2024-03-02T03:25:26;18.70;;;9.77;;
7529;SDS011;3806;52.270;10.544;2024-03-02T03:27:52;21.55;;;10.23;;
7529;SDS011;3806;52.270;10.544;2024-03-02T03:30:18;18.50;;;10.27;;
7529;SDS011;3806;52.270;10.544;2024-03-02T03:32:43;24.45;;;10.80;;
7529;SDS011;3806;52.270;10.544;2024-03-02T03:35:09;18.38;;;10.63;;
7529;SDS011;3806;52.270;10.544;2024-03-02T03:37:35;22.40;;;11.10;;
7529;SDS011;3806;52.270;10.544;2024-03-02T03:40:01;18.13;;;9.90;;
7529;SDS011;3806;52.270;10.544;2024-03-02T03:42:27;21.73;;;10.38;;
7529;SDS011;3806;52.270;10.544;2024-03-02T03:44:53;22.27;;;10.90;;
7529;SDS011;3806;52.270;10.544;2024-03-02T03:47:19;20.13;;;10.60;;
7529;SDS011;3806;52.270;10.544;2024-03-02T03:49:45;21.52;;;11.90;;
7529;SDS011;3806;52.270;10.544;2024-03-02T03:52:10;16.85;;;10.32;;
7529;SDS011;3806;52.270;10.544;2024-03-02T03:54:36;18.83;;;9.63;;
7529;SDS011;3806;52.270;10.544;2024-03-02T03:57:03;16.92;;;10.00;;
7529;SDS011;3806;52.270;10.544;2024-03-02T03:59:29;19.05;;;11.25;;
7529;SDS011;3806;52.270;10.544;2024-03-02T04:01:55;19.35;;;10.90;;
7529;SDS011;3806;52.270;10.544;2024-03-02T04:04:21;19.00;;;10.13;;
7529;SDS011;3806;52.270;10.544;2024-03-02T04:06:46;25.65;;;10.88;;
7529;SDS011;3806;52.270;10.544;2024-03-02T04:09:12;20.88;;;10.32;;
7529;SDS011;3806;52.270;10.544;2024-03-02T04:11:37;20.23;;;10.68;;
7529;SDS011;3806;52.270;10.544;2024-03-02T04:14:03;18.60;;;10.10;;
7529;SDS011;3806;52.270;10.544;2024-03-02T04:16:31;18.33;;;9.60;;
7529;SDS011;3806;52.270;10.544;2024-03-02T04:18:56;20.42;;;10.13;;
7529;SDS011;3806;52.270;10.544;2024-03-02T04:21:22;17.73;;;10.27;;
7529;SDS011;3806;52.270;10.544;2024-03-02T04:23:47;22.10;;;11.40;;
7529;SDS011;3806;52.270;10.544;2024-03-02T04:26:13;19.20;;;10.75;;
7529;SDS011;3806;52.270;10.544;2024-03-02T04:28:39;14.63;;;8.88;;
7529;SDS011;3806;52.270;10.544;2024-03-02T04:31:05;17.48;;;8.98;;
7529;SDS011;3806;52.270;10.544;2024-03-02T04:33:30;20.25;;;10.02;;
7529;SDS011;3806;52.270;10.544;2024-03-02T04:35:56;17.80;;;10.20;;
7529;SDS011;3806;52.270;10.544;2024-03-02T04:38:22;18.90;;;10.95;;
7529;SDS011;3806;52.270;10.544;2024-03-02T04:40:48;19.27;;;9.52;;
7529;SDS011;3806;52.270;10.544;2024-03-02T04:43:13;18.95;;;11.10;;
7529;SDS011;3806;52.270;10.544;2024-03-02T04:45:41;16.58;;;9.88;;
7529;SDS011;3806;52.270;10.544;2024-03-02T04:48:07;18.15;;;9.52;;
7529;SDS011;3806;52.270;10.544;2024-03-02T04:50:33;18.42;;;10.18;;
7529;SDS011;3806;52.270;10.544;2024-03-02T04:52:59;20.48;;;10.15;;
7529;SDS011;3806;52.270;10.544;2024-03-02T04:55:24;18.88;;;9.98;;
7529;SDS011;3806;52.270;10.544;2024-03-02T04:58:10;18.67;;;10.27;;
7529;SDS011;3806;52.270;10.544;2024-03-02T05:00:35;14.48;;;8.10;;
7529;SDS011;3806;52.270;10.544;2024-03-02T05:03:01;17.75;;;9.57;;
7529;SDS011;3806;52.270;10.544;2024-03-02T05:05:27;19.45;;;9.63;;
7529;SDS011;3806;52.270;10.544;2024-03-02T05:07:53;17.35;;;9.73;;
7529;SDS011;3806;52.270;10.544;2024-03-02T05:10:18;19.35;;;10.05;;
7529;SDS011;3806;52.270;10.544;2024-03-02T05:12:44;16.35;;;8.82;;
7529;SDS011;3806;52.270;10.544;2024-03-02T05:15:10;16.13;;;9.43;;
7529;SDS011;3806;52.270;10.544;2024-03-02T05:17:40;22.58;;;11.30;;
7529;SDS011;3806;52.270;10.544;2024-03-02T05:20:08;18.92;;;9.88;;
7529;SDS011;3806;52.270;10.544;2024-03-02T05:22:34;17.38;;;10.48;;
7529;SDS011;3806;52.270;10.544;2024-03-02T05:25:00;19.10;;;9.40;;
7529;SDS011;3806;52.270;10.544;2024-03-02T05:27:29;23.42;;;10.50;;
7529;SDS011;3806;52.270;10.544;2024-03-02T05:29:55;16.67;;;9.90;;
7529;SDS011;3806;52.270;10.544;2024-03-02T05:32:20;16.48;;;9.52;;
7529;SDS011;3806;52.270;10.544;2024-03-02T05:34:46;20.58;;;10.10;;
7529;SDS011;3806;52.270;10.544;2024-03-02T05:37:11;19.23;;;10.43;;
7529;SDS011;3806;52.270;10.544;2024-03-02T05:39:38;17.38;;;9.63;;
7529;SDS011;3806;52.270;10.544;2024-03-02T05:42:03;18.58;;;10.00;;
7529;SDS011;3806;52.270;10.544;2024-03-02T05:44:29;19.00;;;9.27;;
7529;SDS011;3806;52.270;10.544;2024-03-02T05:46:55;17.30;;;9.43;;
7529;SDS011;3806;52.270;10.544;2024-03-02T05:49:20;17.92;;;9.98;;
7529;SDS011;3806;52.270;10.544;2024-03-02T05:51:46;21.75;;;11.43;;
7529;SDS011;3806;52.270;10.544;2024-03-02T05:54:12;20.00;;;10.45;;
7529;SDS011;3806;52.270;10.544;2024-03-02T05:56:37;22.23;;;9.77;;
7529;SDS011;3806;52.270;10.544;2024-03-02T05:59:03;23.13;;;11.95;;
7529;SDS011;3806;52.270;10.544;2024-03-02T06:01:40;19.33;;;10.18;;
7529;SDS011;3806;52.270;10.544;2024-03-02T06:04:07;23.02;;;11.48;;
7529;SDS011;3806;52.270;10.544;2024-03-02T06:06:34;22.80;;;11.05;;
7529;SDS011;3806;52.270;10.544;2024-03-02T06:09:00;17.20;;;9.98;;
7529;SDS011;3806;52.270;10.544;2024-03-02T06:11:27;20.05;;;11.07;;
7529;SDS011;3806;52.270;10.544;2024-03-02T06:13:53;20.15;;;11.20;;
7529;SDS011;3806;52.270;10.544;2024-03-02T06:16:18;21.60;;;10.75;;
7529;SDS011;3806;52.270;10.544;2024-03-02T06:18:44;15.57;;;9.60;;
7529;SDS011;3806;52.270;10.544;2024-03-02T06:21:11;17.98;;;10.98;;
7529;SDS011;3806;52.270;10.544;2024-03-02T06:23:37;23.48;;;12.38;;
7529;SDS011;3806;52.270;10.544;2024-03-02T06:26:02;23.33;;;10.68;;
7529;SDS011;3806;52.270;10.544;2024-03-02T06:28:28;24.00;;;11.35;;
7529;SDS011;3806;52.270;10.544;2024-03-02T06:33:45;18.92;;;10.68;;
7529;SDS011;3806;52.270;10.544;2024-03-02T06:36:11;17.90;;;10.73;;
7529;SDS011;3806;52.270;10.544;2024-03-02T06:38:38;19.48;;;10.75;;
7529;SDS011;3806;52.270;10.544;2024-03-02T06:41:06;18.75;;;10.88;;
7529;SDS011;3806;52.270;10.544;2024-03-02T06:43:31;18.50;;;10.65;;
7529;SDS011;3806;52.270;10.544;2024-03-02T06:45:58;19.77;;;12.10;;
7529;SDS011;3806;52.270;10.544;2024-03-02T06:48:25;23.83;;;10.40;;
7529;SDS011;3806;52.270;10.544;2024-03-02T06:50:50;16.52;;;9.73;;
7529;SDS011;3806;52.270;10.544;2024-03-02T06:53:17;21.77;;;10.15;;
7529;SDS011;3806;52.270;10.544;2024-03-02T06:55:43;21.65;;;10.48;;
7529;SDS011;3806;52.270;10.544;2024-03-02T06:58:12;18.00;;;11.63;;
7529;SDS011;3806;52.270;10.544;2024-03-02T07:00:40;22.52;;;10.80;;
7529;SDS011;3806;52.270;10.544;2024-03-02T07:03:05;23.73;;;10.95;;
7529;SDS011;3806;52.270;10.544;2024-03-02T07:05:31;22.08;;;10.95;;
7529;SDS011;3806;52.270;10.544;2024-03-02T07:07:56;19.25;;;10.60;;
7529;SDS011;3806;52.270;10.544;2024-03-02T07:10:22;18.33;;;10.88;;
7529;SDS011;3806;52.270;10.544;2024-03-02T07:12:48;22.38;;;10.27;;
7529;SDS011;3806;52.270;10.544;2024-03-02T07:15:13;20.35;;;10.15;;
7529;SDS011;3806;52.270;10.544;2024-03-02T07:17:58;18.27;;;10.10;;
7529;SDS011;3806;52.270;10.544;2024-03-02T07:20:23;23.10;;;11.18;;
7529;SDS011;3806;52.270;10.544;2024-03-02T07:22:49;19.95;;;11.50;;
7529;SDS011;3806;52.270;10.544;2024-03-02T07:25:14;23.60;;;11.23;;
7529;SDS011;3806;52.270;10.544;2024-03-02T07:27:40;18.70;;;9.77;;
7529;SDS011;3806;52.270;10.544;2024-03-02T07:30:06;21.13;;;12.23;;
7529;SDS011;3806;52.270;10.544;2024-03-02T07:32:32;19.52;;;10.15;;
7529;SDS011;3806;52.270;10.544;2024-03-02T07:34:57;19.40;;;10.68;;
7529;SDS011;3806;52.270;10.544;2024-03-02T07:37:24;18.80;;;10.20;;
7529;SDS011;3806;52.270;10.544;2024-03-02T07:39:50;20.65;;;10.43;;
7529;SDS011;3806;52.270;10.544;2024-03-02T07:42:16;20.42;;;11.10;;
7529;SDS011;3806;52.270;10.544;2024-03-02T07:44:43;19.10;;;10.20;;
7529;SDS011;3806;52.270;10.544;2024-03-02T07:47:10;21.42;;;10.88;;
7529;SDS011;3806;52.270;10.544;2024-03-02T07:49:35;23.17;;;11.25;;
7529;SDS011;3806;52.270;10.544;2024-03-02T07:52:01;21.90;;;10.95;;
7529;SDS011;3806;52.270;10.544;2024-03-02T07:54:26;18.00;;;10.32;;
7529;SDS011;3806;52.270;10.544;2024-03-02T07:56:52;17.02;;;9.80;;
7529;SDS011;3806;52.270;10.544;2024-03-02T07:59:17;17.73;;;9.35;;
7529;SDS011;3806;52.270;10.544;2024-03-02T08:01:43;16.30;;;10.07;;
7529;SDS011;3806;52.270;10.544;2024-03-02T08:04:09;18.30;;;9.90;;
7529;SDS011;3806;52.270;10.544;2024-03-02T08:06:34;25.15;;;10.40;;
7529;SDS011;3806;52.270;10.544;2024-03-02T08:09:00;21.33;;;10.80;;
7529;SDS011;3806;52.270;10.544;2024-03-02T08:11:26;19.35;;;9.90;;
7529;SDS011;3806;52.270;10.544;2024-03-02T08:13:52;16.60;;;9.60;;
7529;SDS011;3806;52.270;10.544;2024-03-02T08:16:19;16.52;;;9.27;;
7529;SDS011;3806;52.270;10.544;2024-03-02T08:18:50;16.30;;;8.55;;
7529;SDS011;3806;52.270;10.544;2024-03-02T08:21:16;17.65;;;9.27;;
7529;SDS011;3806;52.270;10.544;2024-03-02T08:23:44;14.05;;;8.65;;
7529;SDS011;3806;52.270;10.544;2024-03-02T08:26:10;15.75;;;9.35;;
7529;SDS011;3806;52.270;10.544;2024-03-02T08:28:36;16.23;;;9.27;;
7529;SDS011;3806;52.270;10.544;2024-03-02T08:31:03;15.38;;;9.05;;
7529;SDS011;3806;52.270;10.544;2024-03-02T08:33:28;17.35;;;9.45;;
7529;SDS011;3806;52.270;10.544;2024-03-02T08:35:54;14.68;;;8.98;;
7529;SDS011;3806;52.270;10.544;2024-03-02T08:38:20;17.15;;;9.60;;
7529;SDS011;3806;52.270;10.544;2024-03-02T08:40:46;14.80;;;9.77;;
7529;SDS011;3806;52.270;10.544;2024-03-02T08:43:12;15.65;;;9.85;;
7529;SDS011;3806;52.270;10.544;2024-03-02T08:45:37;20.48;;;10.43;;
7529;SDS011;3806;52.270;10.544;2024-03-02T08:48:04;18.20;;;9.20;;
7529;SDS011;3806;52.270;10.544;2024-03-02T08:50:32;14.23;;;8.70;;
7529;SDS011;3806;52.270;10.544;2024-03-02T08:52:57;15.38;;;9.75;;
7529;SDS011;3806;52.270;10.544;2024-03-02T08:55:23;13.70;;;8.23;;
7529;SDS011;3806;52.270;10.544;2024-03-02T08:57:48;15.55;;;8.90;;
7529;SDS011;3806;52.270;10.544;2024-03-02T09:00:15;14.60;;;9.35;;
7529;SDS011;3806;52.270;10.544;2024-03-02T09:02:42;15.38;;;9.57;;
7529;SDS011;3806;52.270;10.544;2024-03-02T09:05:09;15.02;;;8.95;;
7529;SDS011;3806;52.270;10.544;2024-03-02T09:07:35;14.43;;;9.30;;
7529;SDS011;3806;52.270;10.544;2024-03-02T09:10:00;13.32;;;9.02;;
7529;SDS011;3806;52.270;10.544;2024-03-02T09:12:26;14.90;;;9.75;;
7529;SDS011;3806;52.270;10.544;2024-03-02T09:14:51;14.02;;;9.02;;
7529;SDS011;3806;52.270;10.544;2024-03-02T09:17:17;16.08;;;9.70;;
7529;SDS011;3806;52.270;10.544;2024-03-02T09:19:42;16.88;;;9.18;;
7529;SDS011;3806;52.270;10.544;2024-03-02T09:22:08;17.98;;;9.50;;
7529;SDS011;3806;52.270;10.544;2024-03-02T09:24:34;17.30;;;9.52;;
7529;SDS011;3806;52.270;10.544;2024-03-02T09:27:00;14.80;;;8.48;;
7529;SDS011;3806;52.270;10.544;2024-03-02T09:29:25;14.80;;;9.10;;
7529;SDS011;3806;52.270;10.544;2024-03-02T09:31:51;14.95;;;8.68;;
7529;SDS011;3806;52.270;10.544;2024-03-02T09:34:16;18.13;;;9.23;;
7529;SDS011;3806;52.270;10.544;2024-03-02T09:36:42;14.00;;;8.98;;
7529;SDS011;3806;52.270;10.544;2024-03-02T09:39:08;15.45;;;8.50;;
7529;SDS011;3806;52.270;10.544;2024-03-02T09:41:37;18.75;;;9.77;;
7529;SDS011;3806;52.270;10.544;2024-03-02T09:44:03;18.17;;;9.68;;
7529;SDS011;3806;52.270;10.544;2024-03-02T09:46:30;14.20;;;9.18;;
7529;SDS011;3806;52.270;10.544;2024-03-02T09:48:56;15.25;;;8.52;;
7529;SDS011;3806;52.270;10.544;2024-03-02T09:51:22;12.82;;;8.18;;
7529;SDS011;3806;52.270;10.544;2024-03-02T09:53:47;14.23;;;8.32;;
7529;SDS011;3806;52.270;10.544;2024-03-02T09:56:14;12.88;;;8.43;;
7529;SDS011;3806;52.270;10.544;2024-03-02T09:58:41;14.85;;;8.63;;
7529;SDS011;3806;52.270;10.544;2024-03-02T10:01:07;14.20;;;8.43;;
7529;SDS011;3806;52.270;10.544;2024-03-02T10:03:33;12.98;;;8.32;;
7529;SDS011;3806;52.270;10.544;2024-03-02T10:06:18;13.23;;;8.70;;
7529;SDS011;3806;52.270;10.544;2024-03-02T10:08:45;14.07;;;8.82;;
7529;SDS011;3806;52.270;10.544;2024-03-02T10:11:10;14.07;;;8.93;;
7529;SDS011;3806;52.270;10.544;2024-03-02T10:13:36;14.52;;;9.02;;
7529;SDS011;3806;52.270;10.544;2024-03-02T10:16:11;13.93;;;8.48;;
7529;SDS011;3806;52.270;10.544;2024-03-02T10:18:37;13.65;;;9.05;;
7529;SDS011;3806;52.270;10.544;2024-03-02T10:23:51;13.65;;;8.50;;
7529;SDS011;3806;52.270;10.544;2024-03-02T10:26:17;14.98;;;8.07;;
7529;SDS011;3806;52.270;10.544;2024-03-02T10:28:46;14.20;;;8.63;;
7529;SDS011;3806;52.270;10.544;2024-03-02T10:31:12;15.40;;;8.68;;
7529;SDS011;3806;52.270;10.544;2024-03-02T10:33:38;14.68;;;9.18;;
7529;SDS011;3806;52.270;10.544;2024-03-02T10:36:05;15.73;;;8.80;;
7529;SDS011;3806;52.270;10.544;2024-03-02T10:38:30;15.20;;;8.60;;
7529;SDS011;3806;52.270;10.544;2024-03-02T10:40:57;16.02;;;9.38;;
7529;SDS011;3806;52.270;10.544;2024-03-02T10:43:24;13.85;;;8.02;;
7529;SDS011;3806;52.270;10.544;2024-03-02T10:45:51;14.20;;;8.50;;
7529;SDS011;3806;52.270;10.544;2024-03-02T10:48:17;12.95;;;8.63;;
7529;SDS011;3806;52.270;10.544;2024-03-02T10:50:43;16.15;;;9.27;;
7529;SDS011;3806;52.270;10.544;2024-03-02T10:53:08;12.07;;;7.88;;
7529;SDS011;3806;52.270;10.544;2024-03-02T10:55:34;12.63;;;8.13;;
7529;SDS011;3806;52.270;10.544;2024-03-02T10:58:00;11.55;;;7.30;;
7529;SDS011;3806;52.270;10.544;2024-03-02T11:00:30;12.80;;;8.25;;
7529;SDS011;3806;52.270;10.544;2024-03-02T11:03:05;11.95;;;7.47;;
7529;SDS011;3806;52.270;10.544;2024-03-02T11:05:33;11.35;;;7.00;;
7529;SDS011;3806;52.270;10.544;2024-03-02T11:08:02;10.63;;;6.95;;
7529;SDS011;3806;52.270;10.544;2024-03-02T11:10:36;13.30;;;6.70;;
7529;SDS011;3806;52.270;10.544;2024-03-02T11:15:36;11.35;;;5.55;;
7529;SDS011;3806;52.270;10.544;2024-03-02T11:18:03;9.77;;;5.80;;
7529;SDS011;3806;52.270;10.544;2024-03-02T11:20:30;10.82;;;6.07;;
7529;SDS011;3806;52.270;10.544;2024-03-02T11:22:56;11.48;;;6.45;;
7529;SDS011;3806;52.270;10.544;2024-03-02T11:25:25;9.52;;;6.35;;
7529;SDS011;3806;52.270;10.544;2024-03-02T11:31:02;9.85;;;6.25;;
7529;SDS011;3806;52.270;10.544;2024-03-02T11:33:09;11.82;;;6.90;;
7529;SDS011;3806;52.270;10.544;2024-03-02T11:35:35;10.82;;;6.25;;
7529;SDS011;3806;52.270;10.544;2024-03-02T11:38:08;14.85;;;6.75;;
7529;SDS011;3806;52.270;10.544;2024-03-02T11:40:34;11.88;;;6.00;;
7529;SDS011;3806;52.270;10.544;2024-03-02T11:43:00;12.82;;;6.70;;
7529;SDS011;3806;52.270;10.544;2024-03-02T11:45:26;12.57;;;6.80;;
7529;SDS011;3806;52.270;10.544;2024-03-02T11:47:55;11.85;;;7.22;;
7529;SDS011;3806;52.270;10.544;2024-03-02T11:50:34;12.82;;;6.88;;
7529;SDS011;3806;52.270;10.544;2024-03-02T11:53:03;11.52;;;6.57;;
7529;SDS011;3806;52.270;10.544;2024-03-02T11:55:34;11.80;;;7.38;;
7529;SDS011;3806;52.270;10.544;2024-03-02T11:58:11;13.75;;;7.35;;
7529;SDS011;3806;52.270;10.544;2024-03-02T12:00:38;13.88;;;6.97;;
7529;SDS011;3806;52.270;10.544;2024-03-02T12:03:04;11.07;;;6.70;;
7529;SDS011;3806;52.270;10.544;2024-03-02T12:05:31;16.65;;;7.47;;
7529;SDS011;3806;52.270;10.544;2024-03-02T12:07:58;16.45;;;8.98;;
7529;SDS011;3806;52.270;10.544;2024-03-02T12:10:25;12.68;;;6.47;;
7529;SDS011;3806;52.270;10.544;2024-03-02T12:13:00;13.48;;;6.13;;
7529;SDS011;3806;52.270;10.544;2024-03-02T12:15:27;16.15;;;8.02;;
7529;SDS011;3806;52.270;10.544;2024-03-02T12:17:54;11.13;;;6.15;;
7529;SDS011;3806;52.270;10.544;2024-03-02T12:20:26;12.07;;;7.22;;
7529;SDS011;3806;52.270;10.544;2024-03-02T12:22:54;10.95;;;5.85;;
7529;SDS011;3806;52.270;10.544;2024-03-02T12:25:20;15.40;;;6.90;;
7529;SDS011;3806;52.270;10.544;2024-03-02T12:27:47;12.20;;;5.88;;
7529;SDS011;3806;52.270;10.544;2024-03-02T12:30:18;11.18;;;7.18;;
7529;SDS011;3806;52.270;10.544;2024-03-02T12:32:44;10.40;;;5.60;;
7529;SDS011;3806;52.270;10.544;2024-03-02T12:35:10;10.82;;;5.72;;
7529;SDS011;3806;52.270;10.544;2024-03-02T12:37:46;10.65;;;5.35;;
7529;SDS011;3806;52.270;10.544;2024-03-02T12:40:16;9.82;;;5.65;;
7529;SDS011;3806;52.270;10.544;2024-03-02T12:42:44;9.45;;;5.78;;
7529;SDS011;3806;52.270;10.544;2024-03-02T12:45:10;9.70;;;5.55;;
7529;SDS011;3806;52.270;10.544;2024-03-02T12:47:37;9.65;;;5.88;;
7529;SDS011;3806;52.270;10.544;2024-03-02T12:50:04;9.68;;;5.72;;
7529;SDS011;3806;52.270;10.544;2024-03-02T12:52:30;9.75;;;5.07;;
7529;SDS011;3806;52.270;10.544;2024-03-02T12:54:57;7.93;;;4.63;;
7529;SDS011;3806;52.270;10.544;2024-03-02T12:57:28;7.57;;;4.30;;
7529;SDS011;3806;52.270;10.544;2024-03-02T13:00:01;10.77;;;5.15;;
7529;SDS011;3806;52.270;10.544;2024-03-02T13:02:34;8.32;;;4.85;;
7529;SDS011;3806;52.270;10.544;2024-03-02T13:05:00;8.50;;;4.85;;
7529;SDS011;3806;52.270;10.544;2024-03-02T13:07:26;8.05;;;4.32;;
7529;SDS011;3806;52.270;10.544;2024-03-02T13:09:53;8.07;;;4.40;;
7529;SDS011;3806;52.270;10.544;2024-03-02T13:12:21;7.13;;;3.85;;
7529;SDS011;3806;52.270;10.544;2024-03-02T13:14:53;7.13;;;4.40;;
7529;SDS011;3806;52.270;10.544;2024-03-02T13:17:19;8.80;;;4.65;;
7529;SDS011;3806;52.270;10.544;2024-03-02T13:19:57;7.90;;;4.32;;
7529;SDS011;3806;52.270;10.544;2024-03-02T13:22:24;6.43;;;3.65;;
7529;SDS011;3806;52.270;10.544;2024-03-02T13:24:50;8.63;;;4.10;;
7529;SDS011;3806;52.270;10.544;2024-03-02T13:27:16;6.35;;;4.18;;
7529;SDS011;3806;52.270;10.544;2024-03-02T13:29:48;8.50;;;4.85;;
7529;SDS011;3806;52.270;10.544;2024-03-02T13:32:14;7.13;;;4.28;;
7529;SDS011;3806;52.270;10.544;2024-03-02T13:34:40;7.50;;;4.35;;
7529;SDS011;3806;52.270;10.544;2024-03-02T13:37:06;6.13;;;3.92;;
7529;SDS011;3806;52.270;10.544;2024-03-02T13:39:32;8.25;;;4.10;;
7529;SDS011;3806;52.270;10.544;2024-03-02T13:41:59;8.55;;;4.03;;
7529;SDS011;3806;52.270;10.544;2024-03-02T13:44:31;6.85;;;3.92;;
7529;SDS011;3806;52.270;10.544;2024-03-02T13:46:56;7.10;;;3.75;;
7529;SDS011;3806;52.270;10.544;2024-03-02T13:49:23;7.82;;;4.78;;
7529;SDS011;3806;52.270;10.544;2024-03-02T13:51:49;7.25;;;3.95;;
7529;SDS011;3806;52.270;10.544;2024-03-02T13:54:14;5.30;;;3.72;;
7529;SDS011;3806;52.270;10.544;2024-03-02T13:56:40;6.70;;;3.35;;
7529;SDS011;3806;52.270;10.544;2024-03-02T13:59:06;6.72;;;4.18;;
7529;SDS011;3806;52.270;10.544;2024-03-02T14:01:32;6.03;;;3.55;;
7529;SDS011;3806;52.270;10.544;2024-03-02T14:03:58;7.70;;;3.65;;
7529;SDS011;3806;52.270;10.544;2024-03-02T14:06:24;8.70;;;3.83;;
7529;SDS011;3806;52.270;10.544;2024-03-02T14:08:51;8.57;;;3.92;;
7529;SDS011;3806;52.270;10.544;2024-03-02T14:11:17;6.82;;;3.85;;
7529;SDS011;3806;52.270;10.544;2024-03-02T14:13:43;8.40;;;3.83;;
7529;SDS011;3806;52.270;10.544;2024-03-02T14:16:12;7.05;;;4.10;;
7529;SDS011;3806;52.270;10.544;2024-03-02T14:18:38;5.63;;;3.50;;
7529;SDS011;3806;52.270;10.544;2024-03-02T14:21:04;8.27;;;3.80;;
7529;SDS011;3806;52.270;10.544;2024-03-02T14:23:29;7.25;;;4.00;;
7529;SDS011;3806;52.270;10.544;2024-03-02T14:25:55;6.30;;;3.78;;
7529;SDS011;3806;52.270;10.544;2024-03-02T14:28:21;8.13;;;3.72;;
7529;SDS011;3806;52.270;10.544;2024-03-02T14:30:46;6.18;;;3.60;;
7529;SDS011;3806;52.270;10.544;2024-03-02T14:33:13;8.20;;;3.78;;
7529;SDS011;3806;52.270;10.544;2024-03-02T14:35:38;6.40;;;3.38;;
7529;SDS011;3806;52.270;10.544;2024-03-02T14:38:04;6.32;;;3.67;;
7529;SDS011;3806;52.270;10.544;2024-03-02T14:40:30;7.82;;;3.80;;
7529;SDS011;3806;52.270;10.544;2024-03-02T14:42:55;5.60;;;3.70;;
7529;SDS011;3806;52.270;10.544;2024-03-02T14:45:21;5.97;;;3.05;;
7529;SDS011;3806;52.270;10.544;2024-03-02T14:47:47;5.13;;;3.03;;
7529;SDS011;3806;52.270;10.544;2024-03-02T14:50:12;8.38;;;3.80;;
7529;SDS011;3806;52.270;10.544;2024-03-02T14:52:41;6.55;;;3.63;;
7529;SDS011;3806;52.270;10.544;2024-03-02T14:55:07;7.28;;;3.92;;
7529;SDS011;3806;52.270;10.544;2024-03-02T14:57:33;8.57;;;3.90;;